createdAt,value
2018-01-13T00:01:44.165Z,78.04
2018-01-13T00:04:10.619Z,76.61
2018-01-13T00:06:37.019Z,77.09
2018-01-13T00:09:03.723Z,78.64
2018-01-13T00:11:30.120Z,77.07
2018-01-13T00:13:56.515Z,77.09
2018-01-13T00:16:22.923Z,77.31
2018-01-13T00:18:49.300Z,76.64
2018-01-13T00:21:15.751Z,76.84
2018-01-13T00:23:42.144Z,76.49
2018-01-13T00:26:08.540Z,76.60
2018-01-13T00:28:34.956Z,75.95
2018-01-13T00:31:01.360Z,77.05
2018-01-13T00:33:27.704Z,76.16
2018-01-13T00:35:54.129Z,77.51
2018-01-13T00:38:20.539Z,77.36
2018-01-13T00:40:46.931Z,76.75
2018-01-13T00:43:13.387Z,76.79
2018-01-13T00:45:39.759Z,76.83
2018-01-13T00:48:06.166Z,76.81
2018-01-13T00:50:32.556Z,76.94
2018-01-13T00:52:58.891Z,76.75
2018-01-13T00:55:25.223Z,76.43
2018-01-13T00:57:51.627Z,76.53
2018-01-13T01:00:17.952Z,77.38
2018-01-13T01:02:44.311Z,75.54
2018-01-13T01:05:10.672Z,75.64
2018-01-13T01:07:37.061Z,76.46
2018-01-13T01:10:03.453Z,75.67
2018-01-13T01:12:29.859Z,76.33
2018-01-13T01:14:56.207Z,75.72
2018-01-13T01:17:22.577Z,76.22
2018-01-13T01:19:48.903Z,76.44
2018-01-13T01:22:15.297Z,77.25
2018-01-13T01:24:41.771Z,77.60
2018-01-13T01:27:08.179Z,76.37
2018-01-13T01:29:34.582Z,77.16
2018-01-13T01:32:01.020Z,75.50
2018-01-13T01:34:27.419Z,76.92
2018-01-13T01:36:53.811Z,76.62
2018-01-13T01:39:20.229Z,77.23
2018-01-13T01:41:46.599Z,77.17
2018-01-13T01:44:13.072Z,76.62
2018-01-13T01:46:39.439Z,77.39
2018-01-13T01:49:05.834Z,77.74
2018-01-13T01:51:32.232Z,77.04
2018-01-13T01:53:58.683Z,77.10
2018-01-13T01:56:25.097Z,75.93
2018-01-13T01:58:51.480Z,76.84
2018-01-13T02:01:17.867Z,76.54
2018-01-13T02:03:44.315Z,77.25
2018-01-13T02:06:10.656Z,77.21
2018-01-13T02:08:37.028Z,78.14
2018-01-13T02:11:03.395Z,78.13
2018-01-13T02:13:29.802Z,78.36
2018-01-13T02:15:56.215Z,78.66
2018-01-13T02:18:22.611Z,77.90
2018-01-13T02:20:48.997Z,77.05
2018-01-13T02:23:15.420Z,78.38
2018-01-13T02:25:41.792Z,78.52
2018-01-13T02:28:08.222Z,78.77
2018-01-13T02:30:34.760Z,77.34
2018-01-13T02:33:01.171Z,76.87
2018-01-13T02:35:27.615Z,77.48
2018-01-13T02:37:53.950Z,76.70
2018-01-13T02:40:20.307Z,77.46
2018-01-13T02:42:46.695Z,77.38
2018-01-13T02:45:13.031Z,76.25
2018-01-13T02:47:39.404Z,78.00
2018-01-13T02:50:05.744Z,78.44
2018-01-13T02:52:32.120Z,76.88
2018-01-13T02:54:58.471Z,78.07
2018-01-13T02:57:24.906Z,77.79
2018-01-13T02:59:51.339Z,77.74
2018-01-13T03:02:17.828Z,78.30
2018-01-13T03:04:44.255Z,78.36
2018-01-13T03:07:10.638Z,78.03
2018-01-13T03:09:37.043Z,76.16
2018-01-13T03:12:03.438Z,77.55
2018-01-13T03:14:29.823Z,77.04
2018-01-13T03:16:56.214Z,77.57
2018-01-13T03:19:22.575Z,77.90
2018-01-13T03:21:49.028Z,77.76
2018-01-13T03:24:15.374Z,76.88
2018-01-13T03:26:41.710Z,77.02
2018-01-13T03:29:08.049Z,77.53
2018-01-13T03:31:34.383Z,77.82
2018-01-13T03:34:00.795Z,78.12
2018-01-13T03:36:27.223Z,77.82
2018-01-13T03:38:53.594Z,77.08
2018-01-13T03:41:19.975Z,76.56
2018-01-13T03:43:46.367Z,78.24
2018-01-13T03:46:12.856Z,77.76
2018-01-13T03:48:39.390Z,78.00
2018-01-13T03:51:05.795Z,77.13
2018-01-13T03:53:32.171Z,77.25
2018-01-13T03:55:58.571Z,77.95
2018-01-13T03:58:24.967Z,78.46
2018-01-13T04:00:51.308Z,78.01
2018-01-13T04:03:17.699Z,78.15
2018-01-13T04:05:44.068Z,77.07
2018-01-13T04:08:10.491Z,76.57
2018-01-13T04:10:36.881Z,77.81
2018-01-13T04:13:03.239Z,77.11
2018-01-13T04:15:29.683Z,77.15
2018-01-13T04:17:56.078Z,77.20
2018-01-13T04:20:22.403Z,76.59
2018-01-13T04:22:48.799Z,77.14
2018-01-13T04:25:15.199Z,76.18
2018-01-13T04:27:41.586Z,77.53
2018-01-13T04:30:07.932Z,76.46
2018-01-13T04:32:34.327Z,77.89
2018-01-13T04:35:00.658Z,76.84
2018-01-13T04:37:27.070Z,78.54
2018-01-13T04:39:53.503Z,78.02
2018-01-13T04:42:20.020Z,77.27
2018-01-13T04:44:46.451Z,77.97
2018-01-13T04:47:12.783Z,78.46
2018-01-13T04:49:39.163Z,77.29
2018-01-13T04:52:05.631Z,78.56
2018-01-13T04:54:32.039Z,77.13
2018-01-13T04:56:58.435Z,77.57
2018-01-13T04:59:24.803Z,77.57
2018-01-13T05:01:51.175Z,77.63
2018-01-13T05:04:17.580Z,77.67
2018-01-13T05:06:43.983Z,76.59
2018-01-13T05:09:10.332Z,76.72
2018-01-13T05:11:36.703Z,78.21
2018-01-13T05:14:03.121Z,76.84
2018-01-13T05:16:29.483Z,78.78
2018-01-13T05:18:55.873Z,77.88
2018-01-13T05:21:22.248Z,77.58
2018-01-13T05:23:48.623Z,76.60
2018-01-13T05:26:15.087Z,76.41
2018-01-13T05:28:41.523Z,77.71
2018-01-13T05:31:07.901Z,77.36
2018-01-13T05:33:34.255Z,78.20
2018-01-13T05:36:00.627Z,76.76
2018-01-13T05:38:27.003Z,77.54
2018-01-13T05:40:53.370Z,77.24
2018-01-13T05:43:19.732Z,78.04
2018-01-13T05:45:46.134Z,76.98
2018-01-13T05:48:12.479Z,75.42
2018-01-13T05:50:38.862Z,75.19
2018-01-13T05:53:05.250Z,76.88
2018-01-13T05:55:31.619Z,77.84
2018-01-13T05:57:58.071Z,77.17
2018-01-13T06:00:24.464Z,76.26
2018-01-13T06:02:50.867Z,78.09
2018-01-13T06:05:17.271Z,76.61
2018-01-13T06:07:43.684Z,77.47
2018-01-13T06:10:10.080Z,78.08
2018-01-13T06:12:36.443Z,78.61
2018-01-13T06:15:02.885Z,78.02
2018-01-13T06:17:29.332Z,77.21
2018-01-13T06:19:55.650Z,76.44
2018-01-13T06:22:22.103Z,77.51
2018-01-13T06:24:48.479Z,78.28
2018-01-13T06:27:15.071Z,78.49
2018-01-13T06:29:41.415Z,77.95
2018-01-13T06:32:07.787Z,76.00
2018-01-13T06:34:34.235Z,77.94
2018-01-13T06:37:00.663Z,78.40
2018-01-13T06:39:27.071Z,76.92
2018-01-13T06:41:53.460Z,78.79
2018-01-13T06:44:19.835Z,78.24
2018-01-13T06:46:46.255Z,77.79
2018-01-13T06:49:12.715Z,77.70
2018-01-13T06:51:39.083Z,78.77
2018-01-13T06:54:05.607Z,77.32
2018-01-13T06:56:32.026Z,75.09
2018-01-13T06:58:58.479Z,75.87
2018-01-13T07:01:24.873Z,77.98
2018-01-13T07:03:51.216Z,76.37
2018-01-13T07:06:17.675Z,76.96
2018-01-13T07:08:44.027Z,76.95
2018-01-13T07:11:10.391Z,77.35
2018-01-13T07:13:36.827Z,78.20
2018-01-13T07:16:03.267Z,76.78
2018-01-13T07:18:29.646Z,78.36
2018-01-13T07:20:56.291Z,76.10
2018-01-13T07:23:22.709Z,76.63
2018-01-13T07:25:49.124Z,78.66
2018-01-13T07:28:15.547Z,78.23
2018-01-13T07:30:41.927Z,76.73
2018-01-13T07:33:08.319Z,75.05
2018-01-13T07:35:34.836Z,75.59
2018-01-13T07:38:01.287Z,75.23
2018-01-13T07:40:27.635Z,77.99
2018-01-13T07:42:54.028Z,77.01
2018-01-13T07:45:20.411Z,76.84
2018-01-13T07:47:46.787Z,76.38
2018-01-13T07:50:13.263Z,76.65
2018-01-13T07:52:39.620Z,76.81
2018-01-13T07:55:05.967Z,76.46
2018-01-13T07:57:32.359Z,77.04
2018-01-13T07:59:58.720Z,75.96
2018-01-13T08:02:25.123Z,77.01
2018-01-13T08:04:51.535Z,76.68
2018-01-13T08:07:17.967Z,75.40
2018-01-13T08:09:44.432Z,77.51
2018-01-13T08:12:10.837Z,77.86
2018-01-13T08:14:37.228Z,77.11
2018-01-13T08:17:03.606Z,76.50
2018-01-13T08:19:30.069Z,77.66
2018-01-13T08:21:56.496Z,75.36
2018-01-13T08:24:22.895Z,76.12
2018-01-13T08:26:49.312Z,76.49
2018-01-13T08:29:15.743Z,76.28
2018-01-13T08:31:42.101Z,77.97
2018-01-13T08:34:08.480Z,75.19
2018-01-13T08:36:34.875Z,76.98
2018-01-13T08:39:01.263Z,75.26
2018-01-13T08:41:27.699Z,76.85
2018-01-13T08:43:54.183Z,77.62
2018-01-13T08:46:20.531Z,76.71
2018-01-13T08:48:46.936Z,77.74
2018-01-13T08:51:13.436Z,76.27
2018-01-13T08:53:39.843Z,75.35
2018-01-13T08:56:06.351Z,75.42
2018-01-13T08:58:33.046Z,75.25
2018-01-13T09:00:59.478Z,76.31
2018-01-13T09:03:25.923Z,75.44
2018-01-13T09:05:52.323Z,75.61
2018-01-13T09:08:18.719Z,76.63
2018-01-13T09:10:45.143Z,77.24
2018-01-13T09:13:11.511Z,76.36
2018-01-13T09:15:37.872Z,75.54
2018-01-13T09:18:04.300Z,73.72
2018-01-13T09:20:30.687Z,76.40
2018-01-13T09:22:57.023Z,76.37
2018-01-13T09:25:23.456Z,74.80
2018-01-13T09:27:49.879Z,74.93
2018-01-13T09:30:16.365Z,76.66
2018-01-13T09:32:42.767Z,75.54
2018-01-13T09:35:09.191Z,76.16
2018-01-13T09:37:35.603Z,77.20
2018-01-13T09:40:01.983Z,76.41
2018-01-13T09:42:28.380Z,75.36
2018-01-13T09:44:54.791Z,77.55
2018-01-13T09:47:21.160Z,77.10
2018-01-13T09:49:47.579Z,76.68
2018-01-13T09:52:14.017Z,77.09
2018-01-13T09:54:40.331Z,77.34
2018-01-13T09:57:06.776Z,76.83
2018-01-13T09:59:33.252Z,76.83
2018-01-13T10:01:59.608Z,75.84
2018-01-13T10:04:26.031Z,75.45
2018-01-13T10:06:52.496Z,78.30
2018-01-13T10:09:18.888Z,78.12
2018-01-13T10:11:45.299Z,76.34
2018-01-13T10:14:11.814Z,74.57
2018-01-13T10:16:38.240Z,75.44
2018-01-13T10:19:04.640Z,77.15
2018-01-13T10:21:31.215Z,76.34
2018-01-13T10:23:57.636Z,75.51
2018-01-13T10:26:24.039Z,75.32
2018-01-13T10:28:50.491Z,77.91
2018-01-13T10:31:16.889Z,76.22
2018-01-13T10:33:43.252Z,76.85
2018-01-13T10:36:09.720Z,76.32
2018-01-13T10:38:36.107Z,74.94
2018-01-13T10:41:02.496Z,74.13
2018-01-13T10:43:28.927Z,76.26
2018-01-13T10:45:55.328Z,77.10
2018-01-13T10:48:21.675Z,77.45
2018-01-13T10:50:48.140Z,76.17
2018-01-13T10:53:14.514Z,74.12
2018-01-13T10:55:40.951Z,75.06
2018-01-13T10:58:07.299Z,75.73
2018-01-13T11:00:33.735Z,75.27
2018-01-13T11:03:00.124Z,74.10
2018-01-13T11:05:26.570Z,74.89
2018-01-13T11:07:52.939Z,75.91
2018-01-13T11:10:19.343Z,74.54
2018-01-13T11:12:45.750Z,73.96
2018-01-13T11:15:12.151Z,75.41
2018-01-13T11:17:38.543Z,74.96
2018-01-13T11:20:05.019Z,74.68
2018-01-13T11:22:31.374Z,75.74
2018-01-13T11:24:57.724Z,75.58
2018-01-13T11:27:24.141Z,76.60
2018-01-13T11:29:50.553Z,75.08
2018-01-13T11:32:16.959Z,74.32
2018-01-13T11:34:43.342Z,75.14
2018-01-13T11:37:09.690Z,73.20
2018-01-13T11:39:36.135Z,74.40
2018-01-13T11:42:02.588Z,75.49
2018-01-13T11:44:28.983Z,74.20
2018-01-13T11:46:55.471Z,75.24
2018-01-13T11:49:21.911Z,73.27
2018-01-13T11:51:48.295Z,72.37
2018-01-13T11:54:14.743Z,75.12
2018-01-13T11:56:41.153Z,74.49
2018-01-13T11:59:07.551Z,73.34
2018-01-13T12:01:34.059Z,75.46
2018-01-13T12:04:00.455Z,75.63
2018-01-13T12:06:26.886Z,74.91
2018-01-13T12:08:53.348Z,75.02
2018-01-13T12:11:19.763Z,74.97
2018-01-13T12:13:46.166Z,74.38
2018-01-13T12:16:12.632Z,73.19
2018-01-13T12:18:39.068Z,75.63
2018-01-13T12:21:05.422Z,74.17
2018-01-13T12:23:31.902Z,74.74
2018-01-13T12:25:58.275Z,74.39
2018-01-13T12:28:24.639Z,74.70
2018-01-13T12:30:51.055Z,74.08
2018-01-13T12:33:17.413Z,74.35
2018-01-13T12:35:43.779Z,74.39
2018-01-13T12:38:10.160Z,76.52
2018-01-13T12:40:36.588Z,77.23
2018-01-13T12:43:03.040Z,75.74
2018-01-13T12:45:29.479Z,76.98
2018-01-13T12:47:55.807Z,73.06
2018-01-13T12:50:22.306Z,75.34
2018-01-13T12:52:48.744Z,74.96
2018-01-13T12:55:15.143Z,74.58
2018-01-13T12:57:42.325Z,74.63
2018-01-13T13:00:09.023Z,74.74
2018-01-13T13:02:35.396Z,74.25
2018-01-13T13:05:01.807Z,73.91
2018-01-13T13:07:28.288Z,73.63
2018-01-13T13:09:54.668Z,74.07
2018-01-13T13:12:21.027Z,74.79
2018-01-13T13:14:47.459Z,73.77
2018-01-13T13:17:13.816Z,73.99
2018-01-13T13:19:40.202Z,73.68
2018-01-13T13:22:06.635Z,74.29
2018-01-13T13:24:33.083Z,74.26
2018-01-13T13:26:59.455Z,76.28
2018-01-13T13:29:25.804Z,74.42
2018-01-13T13:31:52.236Z,72.94
2018-01-13T13:34:18.599Z,71.98
2018-01-13T13:36:45.000Z,73.35
2018-01-13T13:39:11.386Z,72.87
2018-01-13T13:41:37.751Z,72.69
2018-01-13T13:44:04.184Z,73.68
2018-01-13T13:46:30.605Z,70.61
2018-01-13T13:48:57.085Z,70.96
2018-01-13T13:51:23.440Z,74.64
2018-01-13T13:53:49.795Z,71.39
2018-01-13T13:56:16.231Z,71.43
2018-01-13T13:58:42.567Z,72.82
2018-01-13T14:01:28.434Z,70.99
2018-01-13T14:03:35.399Z,72.00
2018-01-13T14:06:01.813Z,72.65
2018-01-13T14:08:28.221Z,72.48
2018-01-13T14:10:54.621Z,73.29
2018-01-13T14:13:20.987Z,72.81
2018-01-13T14:15:47.336Z,76.09
2018-01-13T14:18:13.735Z,76.22
2018-01-13T14:20:40.116Z,72.88
2018-01-13T14:23:06.492Z,73.07
2018-01-13T14:25:32.908Z,72.71
2018-01-13T14:27:59.280Z,74.77
2018-01-13T14:30:25.683Z,75.96
2018-01-13T14:32:52.103Z,76.70
2018-01-13T14:35:18.520Z,77.26
2018-01-13T14:37:44.939Z,75.30
2018-01-13T14:40:11.309Z,76.90
2018-01-13T14:42:37.711Z,74.93
2018-01-13T14:45:04.136Z,75.34
2018-01-13T14:47:30.531Z,72.89
2018-01-13T14:49:57.017Z,76.23
2018-01-13T14:52:23.419Z,76.09
2018-01-13T14:54:49.767Z,74.07
2018-01-13T14:57:16.139Z,73.94
2018-01-13T14:59:42.536Z,76.42
2018-01-13T15:02:09.064Z,75.62
2018-01-13T15:04:35.473Z,76.95
2018-01-13T15:07:01.867Z,75.64
2018-01-13T15:09:28.241Z,74.24
2018-01-13T15:11:54.584Z,74.81
2018-01-13T15:14:20.940Z,74.28
2018-01-13T15:16:47.315Z,74.03
2018-01-13T15:19:13.732Z,75.89
2018-01-13T15:21:40.076Z,76.62
2018-01-13T15:24:06.528Z,78.25
2018-01-13T15:26:32.971Z,76.26
2018-01-13T15:28:59.332Z,74.91
2018-01-13T15:31:25.735Z,77.36
2018-01-13T15:33:52.113Z,77.15
2018-01-13T15:36:18.531Z,78.71
2018-01-13T15:38:44.946Z,75.54
2018-01-13T15:41:11.323Z,74.60
2018-01-13T15:43:37.714Z,77.93
2018-01-13T15:46:04.091Z,78.62
2018-01-13T15:48:30.502Z,77.92
2018-01-13T15:50:56.885Z,76.78
2018-01-13T15:53:23.339Z,77.42
2018-01-13T15:55:49.702Z,74.93
2018-01-13T15:58:16.115Z,75.04
2018-01-13T16:00:42.512Z,74.57
2018-01-13T16:03:09.343Z,76.31
2018-01-13T16:05:35.711Z,76.21
2018-01-13T16:08:02.139Z,73.37
2018-01-13T16:10:28.508Z,75.39
2018-01-13T16:12:54.852Z,74.26
2018-01-13T16:15:21.279Z,74.62
2018-01-13T16:17:47.635Z,77.40
2018-01-13T16:20:14.112Z,76.35
2018-01-13T16:22:40.496Z,76.85
2018-01-13T16:25:06.900Z,75.32
2018-01-13T16:27:33.380Z,75.97
2018-01-13T16:29:59.818Z,74.08
2018-01-13T16:32:26.203Z,77.29
2018-01-13T16:34:52.581Z,77.19
2018-01-13T16:37:18.999Z,73.48
2018-01-13T16:39:45.345Z,75.08
2018-01-13T16:42:11.694Z,73.91
2018-01-13T16:44:38.110Z,74.78
2018-01-13T16:47:04.520Z,75.57
2018-01-13T16:49:30.879Z,72.17
2018-01-13T16:51:57.284Z,72.83
2018-01-13T16:54:23.691Z,73.23
2018-01-13T16:56:50.123Z,75.64
2018-01-13T16:59:16.608Z,73.54
2018-01-13T17:01:43.007Z,76.93
2018-01-13T17:04:09.373Z,72.30
2018-01-13T17:06:35.759Z,73.70
2018-01-13T17:09:02.259Z,74.81
2018-01-13T17:11:28.722Z,71.84
2018-01-13T17:13:55.132Z,71.26
2018-01-13T17:16:21.528Z,73.49
2018-01-13T17:18:47.999Z,71.78
2018-01-13T17:21:14.379Z,70.94
2018-01-13T17:23:40.753Z,72.75
2018-01-13T17:26:07.144Z,70.75
2018-01-13T17:28:33.573Z,71.73
2018-01-13T17:30:59.967Z,69.96
2018-01-13T17:33:26.351Z,70.94
2018-01-13T17:35:52.723Z,74.85
2018-01-13T17:38:19.108Z,75.17
2018-01-13T17:40:45.488Z,72.16
2018-01-13T17:43:11.832Z,71.35
2018-01-13T17:45:38.225Z,75.05
2018-01-13T17:48:04.575Z,71.65
2018-01-13T17:50:30.916Z,71.92
2018-01-13T17:52:57.261Z,71.88
2018-01-13T17:55:23.688Z,69.62
2018-01-13T17:57:50.134Z,74.65
2018-01-13T18:00:16.531Z,74.54
2018-01-13T18:02:42.929Z,69.93
2018-01-13T18:05:09.344Z,71.37
2018-01-13T18:07:35.736Z,72.24
2018-01-13T18:10:02.150Z,71.36
2018-01-13T18:12:28.630Z,71.60
2018-01-13T18:14:55.016Z,75.41
2018-01-13T18:17:21.384Z,72.57
2018-01-13T18:19:47.827Z,72.61
2018-01-13T18:22:14.252Z,75.02
2018-01-13T18:24:40.627Z,70.59
2018-01-13T18:27:07.034Z,73.00
2018-01-13T18:29:34.404Z,72.04
2018-01-13T18:32:00.975Z,72.86
2018-01-13T18:34:27.388Z,74.52
2018-01-13T18:36:53.754Z,71.34
2018-01-13T18:39:20.120Z,70.73
2018-01-13T18:41:46.532Z,75.92
2018-01-13T18:44:12.931Z,72.23
2018-01-13T18:46:39.339Z,71.48
2018-01-13T18:49:05.747Z,69.90
2018-01-13T18:51:32.168Z,71.65
2018-01-13T18:53:58.562Z,74.14
2018-01-13T18:56:24.947Z,71.29
2018-01-13T18:58:51.365Z,74.32
2018-01-13T19:01:17.776Z,71.82
2018-01-13T19:03:44.220Z,75.61
2018-01-13T19:06:10.587Z,70.22
2018-01-13T19:08:36.943Z,72.68
2018-01-13T19:11:03.287Z,72.92
2018-01-13T19:13:29.671Z,71.42
2018-01-13T19:15:56.107Z,73.35
2018-01-13T19:18:22.536Z,73.85
2018-01-13T19:20:48.906Z,72.93
2018-01-13T19:23:15.277Z,72.58
2018-01-13T19:25:41.683Z,71.30
2018-01-13T19:28:08.115Z,74.85
2018-01-13T19:30:34.487Z,73.26
2018-01-13T19:33:00.936Z,71.59
2018-01-13T19:35:27.287Z,69.88
2018-01-13T19:37:53.696Z,71.46
2018-01-13T19:40:20.139Z,71.06
2018-01-13T19:42:46.491Z,72.30
2018-01-13T19:45:12.888Z,71.34
2018-01-13T19:47:39.275Z,73.06
2018-01-13T19:50:05.703Z,69.72
2018-01-13T19:52:32.128Z,74.29
2018-01-13T19:54:58.532Z,68.40
2018-01-13T19:57:24.947Z,72.17
2018-01-13T19:59:51.323Z,70.71
2018-01-13T20:02:17.703Z,74.52
2018-01-13T20:04:44.135Z,71.59
2018-01-13T20:07:10.571Z,68.65
2018-01-13T20:09:36.980Z,73.63
2018-01-13T20:12:03.380Z,72.32
2018-01-13T20:14:29.804Z,72.46
2018-01-13T20:16:56.167Z,74.21
2018-01-13T20:19:22.497Z,66.50
2018-01-13T20:21:48.950Z,71.62
2018-01-13T20:24:15.367Z,68.61
2018-01-13T20:26:41.768Z,72.74
2018-01-13T20:29:08.239Z,72.07
2018-01-13T20:31:34.632Z,72.05
2018-01-13T20:34:01.043Z,73.02
2018-01-13T20:36:27.443Z,69.41
2018-01-13T20:38:53.859Z,71.02
2018-01-13T20:41:20.243Z,75.16
2018-01-13T20:43:46.631Z,69.76
2018-01-13T20:46:13.019Z,71.96
2018-01-13T20:48:39.408Z,72.31
2018-01-13T20:51:05.824Z,69.91
2018-01-13T20:53:32.223Z,75.35
2018-01-13T20:55:58.628Z,70.70
2018-01-13T20:58:24.970Z,68.63
2018-01-13T21:00:51.378Z,73.98
2018-01-13T21:03:17.807Z,73.14
2018-01-13T21:05:44.202Z,70.85
2018-01-13T21:08:10.601Z,73.51
2018-01-13T21:10:37.037Z,74.46
2018-01-13T21:13:03.464Z,72.68
2018-01-13T21:15:29.796Z,69.26
2018-01-13T21:17:56.217Z,73.52
2018-01-13T21:20:22.691Z,70.09
2018-01-13T21:22:49.084Z,73.45
2018-01-13T21:25:15.584Z,73.98
2018-01-13T21:27:42.024Z,72.10
2018-01-13T21:30:08.509Z,69.21
2018-01-13T21:32:34.935Z,71.67
2018-01-13T21:35:01.348Z,70.11
2018-01-13T21:37:27.727Z,69.84
2018-01-13T21:39:54.155Z,71.74
2018-01-13T21:42:20.538Z,73.61
2018-01-13T21:44:46.984Z,71.74
2018-01-13T21:47:13.436Z,69.71
2018-01-13T21:49:39.735Z,68.41
2018-01-13T21:52:06.119Z,73.83
2018-01-13T21:54:32.523Z,69.39
2018-01-13T21:56:58.906Z,69.24
2018-01-13T21:59:25.398Z,70.37
2018-01-13T22:01:51.747Z,67.49
2018-01-13T22:04:18.195Z,71.40
2018-01-13T22:06:44.508Z,68.19
2018-01-13T22:09:10.888Z,66.88
2018-01-13T22:11:37.201Z,68.11
2018-01-13T22:14:03.497Z,70.99
2018-01-13T22:16:29.927Z,69.35
2018-01-13T22:18:56.263Z,70.85
2018-01-13T22:21:22.576Z,73.60
2018-01-13T22:23:48.915Z,70.98
2018-01-13T22:26:15.286Z,68.83
2018-01-13T22:28:41.654Z,68.10
2018-01-13T22:31:07.974Z,70.25
2018-01-13T22:33:34.393Z,72.38
2018-01-13T22:36:00.748Z,70.15
2018-01-13T22:38:27.068Z,68.62
2018-01-13T22:40:53.464Z,66.02
2018-01-13T22:43:19.808Z,67.40
2018-01-13T22:45:46.127Z,72.05
2018-01-13T22:48:12.443Z,69.68
2018-01-13T22:50:38.831Z,67.83
2018-01-13T22:53:05.189Z,65.33
2018-01-13T22:55:31.516Z,70.16
2018-01-13T22:57:57.824Z,68.48
2018-01-13T23:00:28.932Z,68.12
2018-01-13T23:02:55.215Z,70.42
2018-01-13T23:05:21.527Z,71.89
2018-01-13T23:07:47.907Z,71.98
2018-01-13T23:10:14.324Z,72.12
2018-01-13T23:12:40.650Z,65.78
2018-01-13T23:15:07.031Z,69.98
2018-01-13T23:17:33.423Z,68.03
2018-01-13T23:19:59.795Z,75.53
2018-01-13T23:22:26.167Z,72.70
2018-01-13T23:24:52.581Z,65.49
2018-01-13T23:27:20.971Z,65.42
2018-01-13T23:29:47.290Z,66.24
2018-01-13T23:32:13.728Z,70.07
2018-01-13T23:34:40.043Z,66.63
2018-01-13T23:37:06.393Z,70.50
2018-01-13T23:39:32.807Z,70.67
2018-01-13T23:41:59.181Z,71.89
2018-01-13T23:44:25.638Z,64.34
2018-01-13T23:46:52.017Z,62.97
2018-01-13T23:49:18.318Z,65.76
2018-01-13T23:51:44.637Z,70.84
2018-01-13T23:54:11.064Z,66.27
2018-01-13T23:56:37.425Z,63.87
2018-01-13T23:59:03.744Z,69.30
